EJU13EQ LPPT-GMMX
Flight info
| Callsign | EJU13EQ |
|---|---|
| Flight time | 1h 15m |
| Altitude | 37000 |
| Route | DUZOP DCT AMSEL UR722 MABAP |
| Aircraft | A320/M-SDE2E3FGHIJ1RWXYZ/LB1 |
Departure
| Time | 2026-05-07 19:39 |
|---|---|
| Airport | Lisbon Humberto Delgado Airport (LPPT) |
Arrival
| Time | 2026-05-07 20:54 |
|---|---|
| Airport | Marrakesh Menara Airport (GMMX) |
| Time | Latitude | Longitude | Altitude | Speed | Heading |
|---|---|---|---|---|---|
| 2026-05-07 19:11 | 38.77373 | -9.13145 | 334 ft | 0 kts | 78° |
| 2026-05-07 19:30 | 38.77372 | -9.13149 | 337 ft | 3 kts | 78° |
| 2026-05-07 19:30 | 38.77367 | -9.13182 | 335 ft | 4 kts | 78° |
| 2026-05-07 19:30 | 38.77361 | -9.13215 | 334 ft | 3 kts | 78° |
| 2026-05-07 19:31 | 38.77358 | -9.13242 | 335 ft | 4 kts | 96° |
| 2026-05-07 19:31 | 38.77367 | -9.13264 | 333 ft | 4 kts | 168° |
| 2026-05-07 19:31 | 38.77388 | -9.13269 | 336 ft | 1 kts | 171° |
| 2026-05-07 19:31 | 38.77389 | -9.13269 | 336 ft | 0 kts | 171° |
| 2026-05-07 19:34 | 38.77371 | -9.13266 | 333 ft | 7 kts | 174° |
| 2026-05-07 19:34 | 38.77323 | -9.13332 | 340 ft | 13 kts | 257° |
| 2026-05-07 19:34 | 38.77306 | -9.13438 | 353 ft | 12 kts | 258° |
| 2026-05-07 19:34 | 38.77287 | -9.13553 | 352 ft | 15 kts | 258° |
| 2026-05-07 19:35 | 38.77262 | -9.13708 | 360 ft | 19 kts | 258° |
| 2026-05-07 19:35 | 38.77212 | -9.13853 | 357 ft | 18 kts | 210° |
| 2026-05-07 19:35 | 38.77093 | -9.13919 | 354 ft | 20 kts | 203° |
| 2026-05-07 19:35 | 38.76957 | -9.13991 | 354 ft | 21 kts | 204° |
| 2026-05-07 19:36 | 38.76865 | -9.14040 | 349 ft | 10 kts | 201° |
| 2026-05-07 19:36 | 38.76803 | -9.14071 | 346 ft | 9 kts | 201° |
| 2026-05-07 19:36 | 38.76745 | -9.14100 | 344 ft | 9 kts | 202° |
| 2026-05-07 19:36 | 38.76694 | -9.14127 | 347 ft | 8 kts | 202° |
| 2026-05-07 19:37 | 38.76645 | -9.14154 | 348 ft | 9 kts | 202° |
| 2026-05-07 19:37 | 38.76589 | -9.14216 | 338 ft | 13 kts | 259° |
| 2026-05-07 19:37 | 38.76624 | -9.14337 | 334 ft | 15 kts | 292° |
| 2026-05-07 19:37 | 38.76685 | -9.14367 | 333 ft | 9 kts | 21° |
| 2026-05-07 19:38 | 38.76776 | -9.14320 | 335 ft | 34 kts | 22° |
| 2026-05-07 19:38 | 38.77220 | -9.14081 | 359 ft | 100 kts | 23° |
| 2026-05-07 19:38 | 38.78033 | -9.13651 | 367 ft | 151 kts | 23° |
| 2026-05-07 19:38 | 38.79108 | -9.13066 | 618 ft | 172 kts | 19° |
| 2026-05-07 19:39 | 38.80200 | -9.12480 | 1319 ft | 170 kts | 19° |
| 2026-05-07 19:39 | 38.81294 | -9.11904 | 1863 ft | 180 kts | 20° |
| 2026-05-07 19:39 | 38.82469 | -9.11087 | 2156 ft | 202 kts | 26° |
| 2026-05-07 19:39 | 38.83746 | -9.10105 | 2462 ft | 227 kts | 27° |
| 2026-05-07 19:40 | 38.85166 | -9.08998 | 2846 ft | 251 kts | 28° |
| 2026-05-07 19:40 | 38.86689 | -9.07804 | 3517 ft | 260 kts | 28° |
| 2026-05-07 19:40 | 38.88127 | -9.06335 | 4249 ft | 272 kts | 52° |
| 2026-05-07 19:40 | 38.88789 | -9.04162 | 4956 ft | 280 kts | 87° |
| 2026-05-07 19:41 | 38.88464 | -9.01739 | 5789 ft | 277 kts | 115° |
| 2026-05-07 19:41 | 38.87580 | -8.99562 | 6713 ft | 273 kts | 127° |
| 2026-05-07 19:41 | 38.86238 | -8.97910 | 7517 ft | 268 kts | 154° |
| 2026-05-07 19:41 | 38.84533 | -8.97083 | 8332 ft | 266 kts | 170° |
| 2026-05-07 19:42 | 38.82687 | -8.96926 | 9145 ft | 268 kts | 187° |
| 2026-05-07 19:42 | 38.80887 | -8.97563 | 9928 ft | 271 kts | 200° |
| 2026-05-07 19:42 | 38.79099 | -8.98480 | 10329 ft | 287 kts | 201° |
| 2026-05-07 19:42 | 38.77177 | -8.99500 | 10518 ft | 310 kts | 201° |
| 2026-05-07 19:43 | 38.75109 | -9.00610 | 10667 ft | 333 kts | 201° |
| 2026-05-07 19:43 | 38.72908 | -9.01798 | 10781 ft | 354 kts | 202° |
| 2026-05-07 19:43 | 38.70560 | -9.02992 | 10932 ft | 371 kts | 195° |
| 2026-05-07 19:43 | 38.67973 | -9.03375 | 11344 ft | 379 kts | 177° |
| 2026-05-07 19:44 | 38.65412 | -9.02722 | 11899 ft | 384 kts | 165° |
| 2026-05-07 19:44 | 38.62844 | -9.01765 | 12480 ft | 386 kts | 165° |
| 2026-05-07 19:44 | 38.60259 | -9.00767 | 13051 ft | 389 kts | 164° |
| 2026-05-07 19:44 | 38.57663 | -8.99746 | 13607 ft | 392 kts | 164° |
| 2026-05-07 19:45 | 38.55049 | -8.98718 | 14099 ft | 395 kts | 165° |
| 2026-05-07 19:45 | 38.52413 | -8.97689 | 14559 ft | 398 kts | 165° |
| 2026-05-07 19:45 | 38.49751 | -8.96657 | 15004 ft | 401 kts | 165° |
| 2026-05-07 19:45 | 38.47070 | -8.95626 | 15473 ft | 405 kts | 166° |
| 2026-05-07 19:46 | 38.44363 | -8.94584 | 15899 ft | 408 kts | 166° |
| 2026-05-07 19:46 | 38.41628 | -8.93532 | 16323 ft | 411 kts | 166° |
| 2026-05-07 19:46 | 38.38918 | -8.92490 | 16737 ft | 415 kts | 166° |
| 2026-05-07 19:46 | 38.36147 | -8.91427 | 17158 ft | 418 kts | 166° |
| 2026-05-07 19:47 | 38.33345 | -8.90357 | 17574 ft | 421 kts | 166° |
| 2026-05-07 19:47 | 38.30532 | -8.89286 | 17971 ft | 424 kts | 167° |
| 2026-05-07 19:47 | 38.27691 | -8.88199 | 18372 ft | 427 kts | 167° |
| 2026-05-07 19:47 | 38.24842 | -8.87105 | 18722 ft | 429 kts | 167° |
| 2026-05-07 19:48 | 38.21971 | -8.86004 | 19073 ft | 431 kts | 167° |
| 2026-05-07 19:48 | 38.19091 | -8.84901 | 19423 ft | 433 kts | 167° |
| 2026-05-07 19:48 | 38.16197 | -8.83798 | 19764 ft | 435 kts | 167° |
| 2026-05-07 19:48 | 38.13329 | -8.82709 | 20091 ft | 437 kts | 167° |
| 2026-05-07 19:49 | 38.10411 | -8.81602 | 20417 ft | 439 kts | 167° |
| 2026-05-07 19:49 | 38.07476 | -8.80484 | 20737 ft | 441 kts | 167° |
| 2026-05-07 19:49 | 38.04530 | -8.79361 | 21054 ft | 443 kts | 167° |
| 2026-05-07 19:49 | 38.01568 | -8.78237 | 21353 ft | 445 kts | 167° |
| 2026-05-07 19:50 | 37.98599 | -8.77115 | 21652 ft | 447 kts | 167° |
| 2026-05-07 19:50 | 37.95610 | -8.75984 | 21940 ft | 449 kts | 167° |
| 2026-05-07 19:50 | 37.92606 | -8.74845 | 22230 ft | 451 kts | 167° |
| 2026-05-07 19:50 | 37.89635 | -8.73719 | 22508 ft | 453 kts | 167° |
| 2026-05-07 19:51 | 37.86611 | -8.72575 | 22774 ft | 455 kts | 167° |
| 2026-05-07 19:51 | 37.83567 | -8.71424 | 22997 ft | 457 kts | 167° |
| 2026-05-07 19:51 | 37.80517 | -8.70270 | 23224 ft | 460 kts | 167° |
| 2026-05-07 19:51 | 37.77437 | -8.69103 | 23492 ft | 462 kts | 167° |
| 2026-05-07 19:52 | 37.74360 | -8.67939 | 23812 ft | 461 kts | 167° |
| 2026-05-07 19:52 | 37.71290 | -8.66779 | 24150 ft | 460 kts | 167° |
| 2026-05-07 19:52 | 37.68229 | -8.65622 | 24504 ft | 458 kts | 167° |
| 2026-05-07 19:52 | 37.65226 | -8.64450 | 24853 ft | 458 kts | 166° |
| 2026-05-07 19:53 | 37.62219 | -8.63150 | 25196 ft | 458 kts | 164° |
| 2026-05-07 19:53 | 37.59231 | -8.61762 | 25533 ft | 457 kts | 163° |
| 2026-05-07 19:53 | 37.56262 | -8.60331 | 25888 ft | 456 kts | 163° |
| 2026-05-07 19:53 | 37.53301 | -8.58896 | 26255 ft | 455 kts | 163° |
| 2026-05-07 19:54 | 37.50349 | -8.57486 | 26635 ft | 453 kts | 163° |
| 2026-05-07 19:54 | 37.47392 | -8.56099 | 27003 ft | 452 kts | 164° |
| 2026-05-07 19:54 | 37.44447 | -8.54741 | 27382 ft | 451 kts | 164° |
| 2026-05-07 19:54 | 37.41504 | -8.53399 | 27767 ft | 449 kts | 165° |
| 2026-05-07 19:55 | 37.38609 | -8.52086 | 28118 ft | 448 kts | 165° |
| 2026-05-07 19:55 | 37.35676 | -8.50759 | 28492 ft | 447 kts | 165° |
| 2026-05-07 19:55 | 37.32752 | -8.49432 | 28863 ft | 446 kts | 165° |
| 2026-05-07 19:55 | 37.29840 | -8.48100 | 29219 ft | 445 kts | 165° |
| 2026-05-07 19:56 | 37.26932 | -8.46768 | 29604 ft | 444 kts | 165° |
| 2026-05-07 19:56 | 37.24029 | -8.45440 | 29990 ft | 443 kts | 165° |
| 2026-05-07 19:56 | 37.21133 | -8.44119 | 30325 ft | 442 kts | 165° |
| 2026-05-07 19:56 | 37.18250 | -8.42805 | 30658 ft | 440 kts | 165° |
| 2026-05-07 19:57 | 37.15410 | -8.41511 | 30948 ft | 440 kts | 166° |
| 2026-05-07 19:57 | 37.12543 | -8.40206 | 31261 ft | 439 kts | 166° |
| 2026-05-07 19:57 | 37.09681 | -8.38904 | 31594 ft | 437 kts | 166° |
| 2026-05-07 19:57 | 37.06828 | -8.37605 | 31925 ft | 436 kts | 166° |
| 2026-05-07 19:58 | 37.03979 | -8.36310 | 32264 ft | 434 kts | 167° |
| 2026-05-07 19:58 | 37.01142 | -8.35024 | 32606 ft | 433 kts | 167° |
| 2026-05-07 19:58 | 36.98316 | -8.33743 | 32890 ft | 432 kts | 167° |
| 2026-05-07 19:58 | 36.95490 | -8.32463 | 33142 ft | 432 kts | 167° |
| 2026-05-07 19:59 | 36.92700 | -8.31200 | 33405 ft | 432 kts | 167° |
| 2026-05-07 19:59 | 36.89876 | -8.29922 | 33713 ft | 431 kts | 167° |
| 2026-05-07 19:59 | 36.87066 | -8.28650 | 34020 ft | 430 kts | 167° |
| 2026-05-07 19:59 | 36.84257 | -8.27381 | 34295 ft | 429 kts | 167° |
| 2026-05-07 20:00 | 36.81453 | -8.26117 | 34572 ft | 427 kts | 168° |
| 2026-05-07 20:00 | 36.78663 | -8.24861 | 34860 ft | 426 kts | 168° |
| 2026-05-07 20:00 | 36.75873 | -8.23609 | 35103 ft | 426 kts | 168° |
| 2026-05-07 20:00 | 36.73089 | -8.22360 | 35325 ft | 425 kts | 168° |
| 2026-05-07 20:01 | 36.70314 | -8.21115 | 35535 ft | 424 kts | 168° |
| 2026-05-07 20:01 | 36.67572 | -8.19880 | 35746 ft | 424 kts | 168° |
| 2026-05-07 20:01 | 36.64796 | -8.18634 | 35958 ft | 424 kts | 168° |
| 2026-05-07 20:01 | 36.62025 | -8.17392 | 36169 ft | 423 kts | 168° |
| 2026-05-07 20:02 | 36.59253 | -8.16149 | 36373 ft | 423 kts | 168° |
| 2026-05-07 20:02 | 36.56492 | -8.14908 | 36577 ft | 422 kts | 168° |
| 2026-05-07 20:02 | 36.53731 | -8.13666 | 36776 ft | 422 kts | 168° |
| 2026-05-07 20:02 | 36.50969 | -8.12428 | 36918 ft | 422 kts | 168° |
| 2026-05-07 20:03 | 36.45395 | -8.09951 | 36937 ft | 428 kts | 168° |
| 2026-05-07 20:03 | 36.39800 | -8.07465 | 36950 ft | 431 kts | 168° |
| 2026-05-07 20:04 | 36.34159 | -8.04950 | 36953 ft | 431 kts | 168° |
| 2026-05-07 20:04 | 36.28518 | -8.02435 | 36950 ft | 431 kts | 168° |
| 2026-05-07 20:05 | 36.22868 | -7.99918 | 36940 ft | 431 kts | 168° |
| 2026-05-07 20:05 | 36.17257 | -7.97430 | 36950 ft | 432 kts | 168° |
| 2026-05-07 20:06 | 36.11599 | -7.94925 | 36959 ft | 432 kts | 168° |
| 2026-05-07 20:06 | 36.05935 | -7.92417 | 36969 ft | 432 kts | 168° |
| 2026-05-07 20:07 | 36.00269 | -7.89917 | 36971 ft | 432 kts | 168° |
| 2026-05-07 20:07 | 35.94573 | -7.88139 | 36945 ft | 418 kts | 182° |
| 2026-05-07 20:08 | 35.88793 | -7.87623 | 36958 ft | 417 kts | 183° |
| 2026-05-07 20:08 | 35.83002 | -7.87100 | 36966 ft | 417 kts | 183° |
| 2026-05-07 20:09 | 35.77207 | -7.86575 | 36962 ft | 418 kts | 183° |
| 2026-05-07 20:10 | 35.68509 | -7.85776 | 36984 ft | 418 kts | 184° |
| 2026-05-07 20:10 | 35.62841 | -7.86108 | 36986 ft | 410 kts | 191° |
| 2026-05-07 20:11 | 35.57160 | -7.86669 | 36976 ft | 410 kts | 191° |
| 2026-05-07 20:11 | 35.51477 | -7.87243 | 36982 ft | 410 kts | 191° |
| 2026-05-07 20:12 | 35.45796 | -7.87815 | 36969 ft | 410 kts | 191° |
| 2026-05-07 20:12 | 35.40116 | -7.88389 | 36963 ft | 410 kts | 191° |
| 2026-05-07 20:13 | 35.34428 | -7.88951 | 36983 ft | 410 kts | 191° |
| 2026-05-07 20:13 | 35.28784 | -7.89504 | 36984 ft | 410 kts | 191° |
| 2026-05-07 20:14 | 35.23100 | -7.90060 | 36961 ft | 410 kts | 191° |
| 2026-05-07 20:14 | 35.17419 | -7.90623 | 36967 ft | 410 kts | 191° |
| 2026-05-07 20:15 | 35.11731 | -7.91183 | 36973 ft | 410 kts | 191° |
| 2026-05-07 20:15 | 35.06079 | -7.91736 | 36980 ft | 410 kts | 192° |
| 2026-05-07 20:16 | 35.00397 | -7.92309 | 36982 ft | 410 kts | 192° |
| 2026-05-07 20:16 | 34.94706 | -7.92875 | 36962 ft | 411 kts | 192° |
| 2026-05-07 20:17 | 34.89007 | -7.93424 | 36967 ft | 411 kts | 192° |
| 2026-05-07 20:17 | 34.83303 | -7.93982 | 36975 ft | 411 kts | 192° |
| 2026-05-07 20:18 | 34.77641 | -7.94537 | 36980 ft | 411 kts | 192° |
| 2026-05-07 20:18 | 34.71938 | -7.95102 | 36949 ft | 411 kts | 192° |
| 2026-05-07 20:19 | 34.66229 | -7.95663 | 36961 ft | 412 kts | 192° |
| 2026-05-07 20:19 | 34.60514 | -7.96216 | 36967 ft | 412 kts | 192° |
| 2026-05-07 20:20 | 34.54796 | -7.96769 | 36967 ft | 412 kts | 192° |
| 2026-05-07 20:20 | 34.49115 | -7.97327 | 36972 ft | 412 kts | 192° |
| 2026-05-07 20:21 | 34.43394 | -7.97891 | 36953 ft | 413 kts | 192° |
| 2026-05-07 20:21 | 34.37667 | -7.98446 | 36961 ft | 413 kts | 192° |
| 2026-05-07 20:22 | 34.31934 | -7.98988 | 36967 ft | 413 kts | 192° |
| 2026-05-07 20:22 | 34.26200 | -7.99542 | 36972 ft | 413 kts | 192° |
| 2026-05-07 20:23 | 34.20507 | -8.00094 | 36949 ft | 413 kts | 192° |
| 2026-05-07 20:23 | 34.14776 | -8.00652 | 36958 ft | 414 kts | 192° |
| 2026-05-07 20:24 | 34.09036 | -8.01208 | 36963 ft | 414 kts | 192° |
| 2026-05-07 20:24 | 34.03294 | -8.01758 | 36964 ft | 414 kts | 192° |
| 2026-05-07 20:25 | 33.97549 | -8.02302 | 36970 ft | 414 kts | 192° |
| 2026-05-07 20:25 | 33.91841 | -8.02850 | 36934 ft | 414 kts | 192° |
| 2026-05-07 20:26 | 33.86089 | -8.03409 | 36946 ft | 415 kts | 192° |
| 2026-05-07 20:26 | 33.80328 | -8.03961 | 36952 ft | 416 kts | 192° |
| 2026-05-07 20:27 | 33.74561 | -8.04508 | 36959 ft | 416 kts | 192° |
| 2026-05-07 20:27 | 33.68829 | -8.05051 | 36936 ft | 416 kts | 193° |
| 2026-05-07 20:28 | 33.63054 | -8.05611 | 36953 ft | 416 kts | 192° |
| 2026-05-07 20:28 | 33.57274 | -8.06161 | 36957 ft | 417 kts | 192° |
| 2026-05-07 20:29 | 33.51486 | -8.06707 | 36957 ft | 417 kts | 192° |
| 2026-05-07 20:29 | 33.45694 | -8.07257 | 36962 ft | 417 kts | 192° |
| 2026-05-07 20:30 | 33.39942 | -8.07804 | 36939 ft | 418 kts | 193° |
| 2026-05-07 20:30 | 33.34124 | -8.08362 | 36954 ft | 420 kts | 193° |
| 2026-05-07 20:31 | 33.28299 | -8.08918 | 36960 ft | 420 kts | 193° |
| 2026-05-07 20:31 | 33.22464 | -8.09460 | 36965 ft | 420 kts | 193° |
| 2026-05-07 20:32 | 33.16629 | -8.10004 | 36968 ft | 421 kts | 193° |
| 2026-05-07 20:32 | 33.10832 | -8.10552 | 36970 ft | 421 kts | 193° |
| 2026-05-07 20:33 | 33.05000 | -8.11097 | 36974 ft | 420 kts | 193° |
| 2026-05-07 20:33 | 32.99168 | -8.11647 | 36881 ft | 421 kts | 193° |
| 2026-05-07 20:33 | 32.96248 | -8.11921 | 36618 ft | 420 kts | 192° |
| 2026-05-07 20:34 | 32.93334 | -8.12193 | 36361 ft | 420 kts | 192° |
| 2026-05-07 20:34 | 32.90455 | -8.12461 | 36120 ft | 420 kts | 192° |
| 2026-05-07 20:34 | 32.87536 | -8.12737 | 35831 ft | 421 kts | 192° |
| 2026-05-07 20:34 | 32.84612 | -8.13014 | 35582 ft | 422 kts | 192° |
| 2026-05-07 20:35 | 32.81684 | -8.13288 | 35337 ft | 423 kts | 192° |
| 2026-05-07 20:35 | 32.78751 | -8.13560 | 35093 ft | 423 kts | 192° |
| 2026-05-07 20:35 | 32.75816 | -8.13837 | 34843 ft | 423 kts | 192° |
| 2026-05-07 20:35 | 32.72875 | -8.14114 | 34600 ft | 424 kts | 192° |
| 2026-05-07 20:36 | 32.69938 | -8.14388 | 34352 ft | 424 kts | 191° |
| 2026-05-07 20:36 | 32.67023 | -8.14660 | 33471 ft | 428 kts | 191° |
| 2026-05-07 20:36 | 32.64053 | -8.14934 | 32607 ft | 429 kts | 191° |
| 2026-05-07 20:36 | 32.61068 | -8.15207 | 31673 ft | 431 kts | 191° |
| 2026-05-07 20:37 | 32.58064 | -8.15485 | 30815 ft | 433 kts | 191° |
| 2026-05-07 20:37 | 32.55059 | -8.15766 | 29835 ft | 435 kts | 191° |
| 2026-05-07 20:37 | 32.52027 | -8.16052 | 28734 ft | 438 kts | 190° |
| 2026-05-07 20:37 | 32.48984 | -8.16337 | 27715 ft | 439 kts | 190° |
| 2026-05-07 20:38 | 32.45931 | -8.16619 | 26636 ft | 440 kts | 190° |
| 2026-05-07 20:38 | 32.42869 | -8.16902 | 25509 ft | 444 kts | 189° |
| 2026-05-07 20:38 | 32.39819 | -8.17186 | 24421 ft | 447 kts | 189° |
| 2026-05-07 20:38 | 32.36724 | -8.17474 | 23313 ft | 449 kts | 189° |
| 2026-05-07 20:39 | 32.33609 | -8.17761 | 22380 ft | 445 kts | 189° |
| 2026-05-07 20:39 | 32.30544 | -8.18039 | 21582 ft | 439 kts | 189° |
| 2026-05-07 20:39 | 32.27524 | -8.18318 | 20801 ft | 433 kts | 189° |
| 2026-05-07 20:39 | 32.24530 | -8.18595 | 20026 ft | 429 kts | 189° |
| 2026-05-07 20:40 | 32.21569 | -8.18866 | 19266 ft | 425 kts | 189° |
| 2026-05-07 20:40 | 32.18633 | -8.19137 | 18519 ft | 422 kts | 189° |
| 2026-05-07 20:40 | 32.15719 | -8.19411 | 17743 ft | 418 kts | 190° |
| 2026-05-07 20:40 | 32.12939 | -8.20028 | 17024 ft | 407 kts | 199° |
| 2026-05-07 20:41 | 32.10318 | -8.21201 | 16295 ft | 400 kts | 208° |
| 2026-05-07 20:41 | 32.07921 | -8.22793 | 15592 ft | 394 kts | 212° |
| 2026-05-07 20:41 | 32.05563 | -8.24415 | 14933 ft | 390 kts | 212° |
| 2026-05-07 20:41 | 32.03235 | -8.26008 | 14288 ft | 385 kts | 212° |
| 2026-05-07 20:42 | 32.00924 | -8.27583 | 13651 ft | 381 kts | 211° |
| 2026-05-07 20:42 | 31.98639 | -8.29139 | 12996 ft | 376 kts | 211° |
| 2026-05-07 20:42 | 31.96391 | -8.30669 | 12412 ft | 370 kts | 211° |
| 2026-05-07 20:42 | 31.94178 | -8.32176 | 11798 ft | 366 kts | 211° |
| 2026-05-07 20:43 | 31.91989 | -8.33666 | 11316 ft | 358 kts | 211° |
| 2026-05-07 20:43 | 31.89910 | -8.35082 | 11198 ft | 342 kts | 211° |
| 2026-05-07 20:43 | 31.87899 | -8.36451 | 11078 ft | 326 kts | 211° |
| 2026-05-07 20:43 | 31.85978 | -8.37754 | 10956 ft | 312 kts | 211° |
| 2026-05-07 20:44 | 31.84132 | -8.39006 | 10838 ft | 300 kts | 210° |
| 2026-05-07 20:44 | 31.82291 | -8.40049 | 10717 ft | 288 kts | 205° |
| 2026-05-07 20:44 | 31.80487 | -8.40976 | 10591 ft | 278 kts | 205° |
| 2026-05-07 20:44 | 31.78731 | -8.41879 | 10376 ft | 273 kts | 205° |
| 2026-05-07 20:45 | 31.77000 | -8.42770 | 10138 ft | 271 kts | 205° |
| 2026-05-07 20:45 | 31.75273 | -8.43663 | 9935 ft | 270 kts | 204° |
| 2026-05-07 20:45 | 31.73576 | -8.44539 | 9824 ft | 271 kts | 204° |
| 2026-05-07 20:45 | 31.71850 | -8.45431 | 9694 ft | 271 kts | 204° |
| 2026-05-07 20:46 | 31.70128 | -8.46320 | 9554 ft | 270 kts | 204° |
| 2026-05-07 20:46 | 31.68400 | -8.47208 | 9229 ft | 272 kts | 204° |
| 2026-05-07 20:46 | 31.66661 | -8.48100 | 8755 ft | 274 kts | 204° |
| 2026-05-07 20:46 | 31.64909 | -8.48993 | 8332 ft | 274 kts | 201° |
| 2026-05-07 20:47 | 31.63055 | -8.49312 | 7858 ft | 273 kts | 171° |
| 2026-05-07 20:47 | 31.61375 | -8.48362 | 7396 ft | 272 kts | 138° |
| 2026-05-07 20:47 | 31.60452 | -8.46454 | 6950 ft | 274 kts | 104° |
| 2026-05-07 20:47 | 31.60359 | -8.44243 | 6531 ft | 277 kts | 86° |
| 2026-05-07 20:48 | 31.60599 | -8.41994 | 6070 ft | 279 kts | 82° |
| 2026-05-07 20:48 | 31.60903 | -8.39753 | 5624 ft | 279 kts | 82° |
| 2026-05-07 20:48 | 31.61162 | -8.37508 | 5208 ft | 278 kts | 83° |
| 2026-05-07 20:48 | 31.61354 | -8.35254 | 4832 ft | 275 kts | 83° |
| 2026-05-07 20:49 | 31.61487 | -8.33033 | 4532 ft | 272 kts | 84° |
| 2026-05-07 20:49 | 31.61582 | -8.30792 | 4510 ft | 272 kts | 86° |
| 2026-05-07 20:49 | 31.61652 | -8.28648 | 4509 ft | 255 kts | 87° |
| 2026-05-07 20:49 | 31.61706 | -8.26629 | 4507 ft | 243 kts | 86° |
| 2026-05-07 20:50 | 31.61754 | -8.24695 | 4512 ft | 235 kts | 86° |
| 2026-05-07 20:50 | 31.61800 | -8.22839 | 4510 ft | 221 kts | 86° |
| 2026-05-07 20:50 | 31.61846 | -8.21057 | 4488 ft | 217 kts | 87° |
| 2026-05-07 20:50 | 31.61892 | -8.19291 | 4120 ft | 213 kts | 86° |
| 2026-05-07 20:51 | 31.61869 | -8.17560 | 3626 ft | 211 kts | 89° |
| 2026-05-07 20:51 | 31.61754 | -8.15881 | 3326 ft | 200 kts | 92° |
| 2026-05-07 20:51 | 31.61620 | -8.14309 | 3038 ft | 188 kts | 91° |
| 2026-05-07 20:51 | 31.61494 | -8.12860 | 2806 ft | 170 kts | 92° |
| 2026-05-07 20:52 | 31.61378 | -8.11517 | 2564 ft | 163 kts | 90° |
| 2026-05-07 20:52 | 31.61266 | -8.10228 | 2366 ft | 160 kts | 92° |
| 2026-05-07 20:52 | 31.61154 | -8.08940 | 2152 ft | 157 kts | 91° |
| 2026-05-07 20:52 | 31.61045 | -8.07690 | 1973 ft | 153 kts | 92° |
| 2026-05-07 20:53 | 31.60944 | -8.06457 | 1773 ft | 152 kts | 92° |
| 2026-05-07 20:53 | 31.60832 | -8.05221 | 1588 ft | 153 kts | 90° |
| 2026-05-07 20:53 | 31.60728 | -8.04056 | 1532 ft | 127 kts | 95° |
| 2026-05-07 20:53 | 31.60670 | -8.03363 | 1535 ft | 54 kts | 96° |
| 2026-05-07 20:54 | 31.60633 | -8.02969 | 1546 ft | 38 kts | 97° |
| 2026-05-07 20:54 | 31.60610 | -8.02741 | 1549 ft | 19 kts | 93° |
| 2026-05-07 20:54 | 31.60595 | -8.02649 | 1549 ft | 7 kts | 128° |
| 2026-05-07 20:54 | 31.60555 | -8.02641 | 1549 ft | 5 kts | 181° |
| 2026-05-07 20:55 | 31.60522 | -8.02642 | 1549 ft | 5 kts | 181° |
| 2026-05-07 20:55 | 31.60475 | -8.02643 | 1549 ft | 9 kts | 181° |
| 2026-05-07 20:55 | 31.60429 | -8.02604 | 1549 ft | 11 kts | 106° |
| 2026-05-07 20:55 | 31.60418 | -8.02501 | 1549 ft | 15 kts | 96° |
| 2026-05-07 20:56 | 31.60405 | -8.02366 | 1549 ft | 18 kts | 97° |
| 2026-05-07 20:56 | 31.60394 | -8.02232 | 1549 ft | 14 kts | 95° |
| 2026-05-07 20:56 | 31.60314 | -8.02199 | 1549 ft | 15 kts | 185° |
| 2026-05-07 20:56 | 31.60248 | -8.02206 | 1549 ft | 7 kts | 185° |
| 2026-05-07 20:57 | 31.60199 | -8.02212 | 1549 ft | 3 kts | 189° |
| 2026-05-07 20:57 | 31.60181 | -8.02244 | 1549 ft | 8 kts | 266° |
| 2026-05-07 20:57 | 31.60183 | -8.02280 | 1549 ft | 5 kts | 272° |
| 2026-05-07 20:57 | 31.60183 | -8.02286 | 1549 ft | 0 kts | 274° |
| 2026-05-07 20:58 | 31.60184 | -8.02293 | 1549 ft | 2 kts | 274° |
| 2026-05-07 20:58 | 31.60184 | -8.02300 | 1549 ft | 0 kts | 274° |